sensor_id;sensor_type;location;lat;lon;timestamp;pressure;altitude;pressure_sealevel;temperature;humidity
56052;BME280;41919;42.648;23.384;2024-01-30T00:02:14;96499.84;;;0.74;68.74
56052;BME280;41919;42.648;23.384;2024-01-30T00:04:39;96493.81;;;0.61;69.64
56052;BME280;41919;42.648;23.384;2024-01-30T00:07:04;96445.06;;;0.30;69.69
56052;BME280;41919;42.648;23.384;2024-01-30T00:09:30;96471.53;;;0.47;69.77
56052;BME280;41919;42.648;23.384;2024-01-30T00:11:56;96435.06;;;0.11;69.91
56052;BME280;41919;42.648;23.384;2024-01-30T00:14:21;96497.94;;;0.63;69.66
56052;BME280;41919;42.648;23.384;2024-01-30T00:16:46;96487.75;;;0.62;69.52
56052;BME280;41919;42.648;23.384;2024-01-30T00:19:12;96448.84;;;0.39;69.42
56052;BME280;41919;42.648;23.384;2024-01-30T00:21:37;96494.53;;;0.63;69.18
56052;BME280;41919;42.648;23.384;2024-01-30T00:24:03;96486.75;;;0.50;68.91
56052;BME280;41919;42.648;23.384;2024-01-30T00:26:28;96424.72;;;-0.02;69.38
56052;BME280;41919;42.648;23.384;2024-01-30T00:28:54;96500.38;;;0.52;69.08
56052;BME280;41919;42.648;23.384;2024-01-30T00:31:19;96440.22;;;0.11;68.95
56052;BME280;41919;42.648;23.384;2024-01-30T00:33:45;96435.00;;;-0.02;69.20
56052;BME280;41919;42.648;23.384;2024-01-30T00:36:10;96492.47;;;0.41;69.18
56052;BME280;41919;42.648;23.384;2024-01-30T00:38:36;96511.00;;;0.46;68.43
56052;BME280;41919;42.648;23.384;2024-01-30T00:41:02;96506.03;;;0.57;67.74
56052;BME280;41919;42.648;23.384;2024-01-30T00:43:28;96495.56;;;0.46;67.85
56052;BME280;41919;42.648;23.384;2024-01-30T00:45:53;96513.41;;;0.49;67.99
56052;BME280;41919;42.648;23.384;2024-01-30T00:48:19;96486.94;;;0.47;67.72
56052;BME280;41919;42.648;23.384;2024-01-30T00:50:45;96501.34;;;0.64;67.42
56052;BME280;41919;42.648;23.384;2024-01-30T00:53:10;96474.19;;;0.45;67.61
56052;BME280;41919;42.648;23.384;2024-01-30T00:55:36;96488.78;;;0.45;68.17
56052;BME280;41919;42.648;23.384;2024-01-30T00:58:01;96502.56;;;0.44;68.16
56052;BME280;41919;42.648;23.384;2024-01-30T01:00:27;96483.75;;;0.14;69.34
56052;BME280;41919;42.648;23.384;2024-01-30T01:03:03;96495.22;;;0.09;70.61
56052;BME280;41919;42.648;23.384;2024-01-30T01:05:28;96495.50;;;0.18;70.57
56052;BME280;41919;42.648;23.384;2024-01-30T01:07:54;96486.78;;;0.21;70.34
56052;BME280;41919;42.648;23.384;2024-01-30T01:10:19;96489.00;;;0.27;70.50
56052;BME280;41919;42.648;23.384;2024-01-30T01:12:45;96498.91;;;0.33;70.50
56052;BME280;41919;42.648;23.384;2024-01-30T01:15:11;96454.72;;;-0.02;70.55
56052;BME280;41919;42.648;23.384;2024-01-30T01:17:37;96491.28;;;0.17;71.19
56052;BME280;41919;42.648;23.384;2024-01-30T01:20:04;96501.84;;;0.27;70.77
56052;BME280;41919;42.648;23.384;2024-01-30T01:22:30;96421.16;;;-0.13;70.81
56052;BME280;41919;42.648;23.384;2024-01-30T01:24:56;96503.84;;;0.36;70.05
56052;BME280;41919;42.648;23.384;2024-01-30T01:27:21;96483.25;;;0.36;69.57
56052;BME280;41919;42.648;23.384;2024-01-30T01:29:46;96498.34;;;0.43;69.42
56052;BME280;41919;42.648;23.384;2024-01-30T01:32:12;96500.94;;;0.43;69.65
56052;BME280;41919;42.648;23.384;2024-01-30T01:34:37;96425.19;;;-0.09;69.96
56052;BME280;41919;42.648;23.384;2024-01-30T01:37:03;96498.53;;;0.39;69.68
56052;BME280;41919;42.648;23.384;2024-01-30T01:39:28;96494.84;;;0.44;69.65
56052;BME280;41919;42.648;23.384;2024-01-30T01:41:53;96509.91;;;0.50;69.11
56052;BME280;41919;42.648;23.384;2024-01-30T01:44:19;96506.16;;;0.27;70.07
56052;BME280;41919;42.648;23.384;2024-01-30T01:46:44;96499.28;;;0.27;70.50
56052;BME280;41919;42.648;23.384;2024-01-30T01:49:10;96480.72;;;0.22;69.95
56052;BME280;41919;42.648;23.384;2024-01-30T01:51:36;96500.38;;;0.37;69.87
56052;BME280;41919;42.648;23.384;2024-01-30T01:54:03;96430.59;;;0.01;69.65
56052;BME280;41919;42.648;23.384;2024-01-30T01:56:31;96493.47;;;0.38;69.50
56052;BME280;41919;42.648;23.384;2024-01-30T01:59:00;96439.88;;;0.03;69.16
56052;BME280;41919;42.648;23.384;2024-01-30T02:01:26;96504.59;;;0.38;69.15
56052;BME280;41919;42.648;23.384;2024-01-30T02:03:52;96509.81;;;0.23;69.02
56052;BME280;41919;42.648;23.384;2024-01-30T02:06:18;96441.34;;;-0.07;68.55
56052;BME280;41919;42.648;23.384;2024-01-30T02:08:44;96487.69;;;0.34;68.33
56052;BME280;41919;42.648;23.384;2024-01-30T02:11:09;96432.72;;;0.08;67.44
56052;BME280;41919;42.648;23.384;2024-01-30T02:13:35;96510.66;;;0.52;66.80
56052;BME280;41919;42.648;23.384;2024-01-30T02:16:01;96510.28;;;0.58;66.24
56052;BME280;41919;42.648;23.384;2024-01-30T02:18:26;96493.00;;;0.60;65.14
56052;BME280;41919;42.648;23.384;2024-01-30T02:20:56;96506.94;;;0.70;64.35
56052;BME280;41919;42.648;23.384;2024-01-30T02:23:24;96497.38;;;0.72;63.66
56052;BME280;41919;42.648;23.384;2024-01-30T02:25:50;96482.50;;;0.63;63.08
56052;BME280;41919;42.648;23.384;2024-01-30T02:28:18;96504.53;;;0.82;63.10
56052;BME280;41919;42.648;23.384;2024-01-30T02:30:44;96505.34;;;0.82;63.42
56052;BME280;41919;42.648;23.384;2024-01-30T02:33:09;96437.91;;;0.35;63.25
56052;BME280;41919;42.648;23.384;2024-01-30T02:35:35;96503.16;;;0.76;63.27
56052;BME280;41919;42.648;23.384;2024-01-30T02:38:00;96502.78;;;0.82;63.29
56052;BME280;41919;42.648;23.384;2024-01-30T02:40:26;96492.88;;;0.76;62.86
56052;BME280;41919;42.648;23.384;2024-01-30T02:42:51;96503.66;;;0.95;63.06
56052;BME280;41919;42.648;23.384;2024-01-30T02:45:17;96459.34;;;0.63;62.68
56052;BME280;41919;42.648;23.384;2024-01-30T02:47:42;96505.13;;;1.00;62.13
56052;BME280;41919;42.648;23.384;2024-01-30T02:50:08;96509.25;;;1.02;62.09
56052;BME280;41919;42.648;23.384;2024-01-30T02:52:33;96515.13;;;1.04;61.42
56052;BME280;41919;42.648;23.384;2024-01-30T02:54:59;96438.41;;;0.55;61.68
56052;BME280;41919;42.648;23.384;2024-01-30T02:57:24;96508.06;;;1.08;60.87
56052;BME280;41919;42.648;23.384;2024-01-30T02:59:50;96412.50;;;0.58;60.94
56052;BME280;41919;42.648;23.384;2024-01-30T03:02:15;96439.31;;;0.68;60.25
56052;BME280;41919;42.648;23.384;2024-01-30T03:04:41;96431.16;;;0.62;60.00
56052;BME280;41919;42.648;23.384;2024-01-30T03:07:07;96485.38;;;1.00;58.82
56052;BME280;41919;42.648;23.384;2024-01-30T03:09:32;96503.00;;;1.06;58.86
56052;BME280;41919;42.648;23.384;2024-01-30T03:11:58;96506.69;;;1.02;58.59
56052;BME280;41919;42.648;23.384;2024-01-30T03:14:23;96486.19;;;1.01;58.10
56052;BME280;41919;42.648;23.384;2024-01-30T03:16:49;96501.53;;;1.02;57.97
56052;BME280;41919;42.648;23.384;2024-01-30T03:19:14;96485.69;;;0.81;58.26
56052;BME280;41919;42.648;23.384;2024-01-30T03:21:40;96441.72;;;0.57;57.69
56052;BME280;41919;42.648;23.384;2024-01-30T03:24:05;96495.28;;;0.92;57.55
56052;BME280;41919;42.648;23.384;2024-01-30T03:26:31;96428.13;;;0.55;57.33
56052;BME280;41919;42.648;23.384;2024-01-30T03:28:56;96493.56;;;0.92;57.77
56052;BME280;41919;42.648;23.384;2024-01-30T03:31:22;96497.53;;;0.84;57.22
56052;BME280;41919;42.648;23.384;2024-01-30T03:33:47;96486.66;;;0.93;55.25
56052;BME280;41919;42.648;23.384;2024-01-30T03:36:13;96426.66;;;0.51;54.78
56052;BME280;41919;42.648;23.384;2024-01-30T03:38:38;96431.75;;;0.38;55.50
56052;BME280;41919;42.648;23.384;2024-01-30T03:41:07;96459.63;;;0.58;56.10
56052;BME280;41919;42.648;23.384;2024-01-30T03:43:33;96491.66;;;0.82;55.78
56052;BME280;41919;42.648;23.384;2024-01-30T03:45:59;96487.09;;;0.72;56.09
56052;BME280;41919;42.648;23.384;2024-01-30T03:48:26;96495.53;;;0.74;56.25
56052;BME280;41919;42.648;23.384;2024-01-30T03:50:51;96486.69;;;0.78;56.65
56052;BME280;41919;42.648;23.384;2024-01-30T03:53:17;96490.19;;;0.77;56.89
56052;BME280;41919;42.648;23.384;2024-01-30T03:55:42;96478.00;;;0.67;56.77
56052;BME280;41919;42.648;23.384;2024-01-30T03:58:07;96477.56;;;0.60;57.02
56052;BME280;41919;42.648;23.384;2024-01-30T04:00:33;96479.59;;;0.55;57.43
56052;BME280;41919;42.648;23.384;2024-01-30T04:02:58;96411.47;;;0.19;57.74
56052;BME280;41919;42.648;23.384;2024-01-30T04:05:23;96481.41;;;0.67;57.47
56052;BME280;41919;42.648;23.384;2024-01-30T04:07:49;96417.88;;;0.41;57.43
56052;BME280;41919;42.648;23.384;2024-01-30T04:10:14;96484.88;;;0.81;57.34
56052;BME280;41919;42.648;23.384;2024-01-30T04:12:40;96480.53;;;0.39;57.39
56052;BME280;41919;42.648;23.384;2024-01-30T04:15:05;96469.16;;;0.29;57.89
56052;BME280;41919;42.648;23.384;2024-01-30T04:17:30;96445.09;;;0.16;58.04
56052;BME280;41919;42.648;23.384;2024-01-30T04:19:56;96409.09;;;-0.27;58.78
56052;BME280;41919;42.648;23.384;2024-01-30T04:22:21;96474.31;;;0.01;58.74
56052;BME280;41919;42.648;23.384;2024-01-30T04:24:47;96481.81;;;0.04;59.02
56052;BME280;41919;42.648;23.384;2024-01-30T04:27:12;96480.72;;;0.22;58.79
56052;BME280;41919;42.648;23.384;2024-01-30T04:29:38;96484.66;;;0.13;58.74
56052;BME280;41919;42.648;23.384;2024-01-30T04:32:03;96470.09;;;0.14;58.54
56052;BME280;41919;42.648;23.384;2024-01-30T04:34:29;96486.31;;;0.29;58.45
56052;BME280;41919;42.648;23.384;2024-01-30T04:36:54;96487.34;;;0.41;57.97
56052;BME280;41919;42.648;23.384;2024-01-30T04:39:20;96472.63;;;0.43;57.78
56052;BME280;41919;42.648;23.384;2024-01-30T04:41:45;96469.84;;;0.46;57.44
56052;BME280;41919;42.648;23.384;2024-01-30T04:44:10;96436.63;;;0.28;57.51
56052;BME280;41919;42.648;23.384;2024-01-30T04:46:36;96498.31;;;0.71;57.53
56052;BME280;41919;42.648;23.384;2024-01-30T04:49:01;96497.59;;;0.69;56.89
56052;BME280;41919;42.648;23.384;2024-01-30T04:51:28;96419.81;;;0.23;56.92
56052;BME280;41919;42.648;23.384;2024-01-30T04:53:54;96501.06;;;0.68;57.37
56052;BME280;41919;42.648;23.384;2024-01-30T04:56:19;96496.38;;;0.61;57.47
56052;BME280;41919;42.648;23.384;2024-01-30T04:58:44;96506.28;;;0.67;57.59
56052;BME280;41919;42.648;23.384;2024-01-30T05:01:14;96469.41;;;0.39;58.10
56052;BME280;41919;42.648;23.384;2024-01-30T05:03:40;96495.84;;;0.55;58.27
56052;BME280;41919;42.648;23.384;2024-01-30T05:06:05;96464.91;;;0.28;58.43
56052;BME280;41919;42.648;23.384;2024-01-30T05:08:31;96505.31;;;0.55;58.79
56052;BME280;41919;42.648;23.384;2024-01-30T05:11:00;96505.50;;;0.52;58.89
56052;BME280;41919;42.648;23.384;2024-01-30T05:13:25;96443.53;;;0.13;58.73
56052;BME280;41919;42.648;23.384;2024-01-30T05:15:51;96436.84;;;0.11;59.00
56052;BME280;41919;42.648;23.384;2024-01-30T05:18:16;96519.09;;;0.54;59.50
56052;BME280;41919;42.648;23.384;2024-01-30T05:20:42;96499.91;;;0.45;59.80
56052;BME280;41919;42.648;23.384;2024-01-30T05:23:07;96478.25;;;0.06;60.74
56052;BME280;41919;42.648;23.384;2024-01-30T05:25:33;96427.00;;;-0.26;61.33
56052;BME280;41919;42.648;23.384;2024-01-30T05:27:58;96452.63;;;-0.10;61.36
56052;BME280;41919;42.648;23.384;2024-01-30T05:30:24;96512.78;;;0.31;60.88
56052;BME280;41919;42.648;23.384;2024-01-30T05:32:49;96442.53;;;-0.13;61.03
56052;BME280;41919;42.648;23.384;2024-01-30T05:35:14;96522.31;;;0.29;61.30
56052;BME280;41919;42.648;23.384;2024-01-30T05:37:40;96522.78;;;0.21;61.68
56052;BME280;41919;42.648;23.384;2024-01-30T05:40:06;96461.78;;;-0.34;62.85
56052;BME280;41919;42.648;23.384;2024-01-30T05:42:31;96459.03;;;-0.46;63.01
56052;BME280;41919;42.648;23.384;2024-01-30T05:44:57;96526.34;;;-0.41;62.63
56052;BME280;41919;42.648;23.384;2024-01-30T05:47:22;96523.91;;;-0.58;64.56
56052;BME280;41919;42.648;23.384;2024-01-30T05:49:48;96450.53;;;-1.23;64.43
56052;BME280;41919;42.648;23.384;2024-01-30T05:52:13;96519.44;;;-1.01;65.29
56052;BME280;41919;42.648;23.384;2024-01-30T05:54:40;96530.47;;;-1.30;67.54
56052;BME280;41919;42.648;23.384;2024-01-30T05:57:05;96511.50;;;-1.28;67.78
56052;BME280;41919;42.648;23.384;2024-01-30T05:59:31;96459.28;;;-1.27;66.18
56052;BME280;41919;42.648;23.384;2024-01-30T06:01:57;96519.84;;;-0.76;69.49
56052;BME280;41919;42.648;23.384;2024-01-30T06:04:23;96453.38;;;-0.97;66.73
56052;BME280;41919;42.648;23.384;2024-01-30T06:06:48;96517.69;;;-0.54;66.23
56052;BME280;41919;42.648;23.384;2024-01-30T06:09:14;96527.72;;;-0.49;69.71
56052;BME280;41919;42.648;23.384;2024-01-30T06:11:39;96514.19;;;-0.83;65.44
56052;BME280;41919;42.648;23.384;2024-01-30T06:14:05;96524.16;;;-1.09;67.38
56052;BME280;41919;42.648;23.384;2024-01-30T06:16:30;96520.16;;;-0.83;73.68
56052;BME280;41919;42.648;23.384;2024-01-30T06:18:56;96525.78;;;-0.76;68.18
56052;BME280;41919;42.648;23.384;2024-01-30T06:21:23;96473.16;;;-0.99;69.25
56052;BME280;41919;42.648;23.384;2024-01-30T06:23:49;96533.41;;;-0.74;64.47
56052;BME280;41919;42.648;23.384;2024-01-30T06:26:14;96511.25;;;-0.91;64.69
56052;BME280;41919;42.648;23.384;2024-01-30T06:28:39;96466.41;;;-1.16;64.30
56052;BME280;41919;42.648;23.384;2024-01-30T06:31:05;96531.84;;;-0.93;64.06
56052;BME280;41919;42.648;23.384;2024-01-30T06:33:30;96532.78;;;-0.94;64.36
56052;BME280;41919;42.648;23.384;2024-01-30T06:35:55;96511.91;;;-1.20;63.73
56052;BME280;41919;42.648;23.384;2024-01-30T06:38:21;96533.09;;;-1.00;63.25
56052;BME280;41919;42.648;23.384;2024-01-30T06:40:46;96449.78;;;-1.41;62.43
56052;BME280;41919;42.648;23.384;2024-01-30T06:43:11;96532.84;;;-0.95;62.59
56052;BME280;41919;42.648;23.384;2024-01-30T06:45:37;96535.25;;;-1.08;62.76
56052;BME280;41919;42.648;23.384;2024-01-30T06:48:03;96532.75;;;-1.10;62.96
56052;BME280;41919;42.648;23.384;2024-01-30T06:50:28;96534.91;;;-1.02;62.44
56052;BME280;41919;42.648;23.384;2024-01-30T06:52:54;96535.41;;;-1.11;63.04
56052;BME280;41919;42.648;23.384;2024-01-30T06:55:19;96464.44;;;-1.59;63.38
56052;BME280;41919;42.648;23.384;2024-01-30T06:57:44;96532.06;;;-0.66;61.27
56052;BME280;41919;42.648;23.384;2024-01-30T07:00:10;96535.59;;;0.93;54.76
56052;BME280;41919;42.648;23.384;2024-01-30T07:02:36;96545.50;;;2.19;50.42
56052;BME280;41919;42.648;23.384;2024-01-30T07:05:02;96527.25;;;1.56;50.40
56052;BME280;41919;42.648;23.384;2024-01-30T07:07:27;96471.00;;;1.89;49.40
56052;BME280;41919;42.648;23.384;2024-01-30T07:09:54;96537.88;;;3.65;45.44
56052;BME280;41919;42.648;23.384;2024-01-30T07:12:22;96540.25;;;4.71;42.38
56052;BME280;41919;42.648;23.384;2024-01-30T07:14:49;96509.63;;;5.43;39.92
56052;BME280;41919;42.648;23.384;2024-01-30T07:17:15;96528.94;;;6.55;38.19
56052;BME280;41919;42.648;23.384;2024-01-30T07:19:40;96516.81;;;6.96;36.59
56052;BME280;41919;42.648;23.384;2024-01-30T07:22:06;96514.69;;;7.79;35.33
56052;BME280;41919;42.648;23.384;2024-01-30T07:24:31;96449.66;;;8.17;33.99
56052;BME280;41919;42.648;23.384;2024-01-30T07:26:57;96469.91;;;8.33;33.29
56052;BME280;41919;42.648;23.384;2024-01-30T07:29:22;96523.25;;;9.03;32.37
56052;BME280;41919;42.648;23.384;2024-01-30T07:31:47;96475.66;;;9.19;32.02
56052;BME280;41919;42.648;23.384;2024-01-30T07:34:13;96524.28;;;8.93;32.71
56052;BME280;41919;42.648;23.384;2024-01-30T07:36:38;96520.88;;;8.45;33.17
56052;BME280;41919;42.648;23.384;2024-01-30T07:39:04;96530.25;;;9.49;32.08
56052;BME280;41919;42.648;23.384;2024-01-30T07:41:29;96511.72;;;9.24;31.58
56052;BME280;41919;42.648;23.384;2024-01-30T07:43:55;96503.75;;;9.26;31.77
56052;BME280;41919;42.648;23.384;2024-01-30T07:46:20;96518.31;;;11.21;29.22
56052;BME280;41919;42.648;23.384;2024-01-30T07:48:45;96515.66;;;10.70;28.91
56052;BME280;41919;42.648;23.384;2024-01-30T07:51:11;96461.88;;;9.63;29.74
56052;BME280;41919;42.648;23.384;2024-01-30T07:53:36;96520.72;;;11.82;27.19
56052;BME280;41919;42.648;23.384;2024-01-30T07:56:01;96513.50;;;12.33;27.19
56052;BME280;41919;42.648;23.384;2024-01-30T07:58:27;96520.38;;;11.85;31.07
56052;BME280;41919;42.648;23.384;2024-01-30T08:00:53;96507.59;;;13.26;26.09
56052;BME280;41919;42.648;23.384;2024-01-30T08:03:19;96511.06;;;12.87;26.27
56052;BME280;41919;42.648;23.384;2024-01-30T08:05:44;96504.56;;;14.83;23.62
56052;BME280;41919;42.648;23.384;2024-01-30T08:08:09;96476.84;;;12.00;27.09
56052;BME280;41919;42.648;23.384;2024-01-30T08:10:35;96513.91;;;12.78;26.12
56052;BME280;41919;42.648;23.384;2024-01-30T08:13:01;96506.16;;;13.78;24.87
56052;BME280;41919;42.648;23.384;2024-01-30T08:15:27;96435.06;;;15.57;23.43
56052;BME280;41919;42.648;23.384;2024-01-30T08:17:52;96443.72;;;16.22;21.89
56052;BME280;41919;42.648;23.384;2024-01-30T08:20:23;96501.94;;;16.49;21.84
56052;BME280;41919;42.648;23.384;2024-01-30T08:22:48;96497.94;;;14.34;23.20
56052;BME280;41919;42.648;23.384;2024-01-30T08:25:14;96504.22;;;13.09;24.70
56052;BME280;41919;42.648;23.384;2024-01-30T08:27:39;96447.19;;;13.81;24.09
56052;BME280;41919;42.648;23.384;2024-01-30T08:30:06;96492.47;;;14.59;22.78
56052;BME280;41919;42.648;23.384;2024-01-30T08:32:32;96504.16;;;13.80;23.41
56052;BME280;41919;42.648;23.384;2024-01-30T08:34:57;96513.22;;;13.78;24.29
56052;BME280;41919;42.648;23.384;2024-01-30T08:37:23;96502.88;;;16.34;21.71
56052;BME280;41919;42.648;23.384;2024-01-30T08:39:48;96447.22;;;17.87;19.79
56052;BME280;41919;42.648;23.384;2024-01-30T08:42:14;96506.88;;;17.28;20.11
56052;BME280;41919;42.648;23.384;2024-01-30T08:44:39;96496.16;;;17.56;19.93
56052;BME280;41919;42.648;23.384;2024-01-30T08:47:05;96446.84;;;15.39;20.96
56052;BME280;41919;42.648;23.384;2024-01-30T08:49:31;96521.50;;;13.89;22.66
56052;BME280;41919;42.648;23.384;2024-01-30T08:51:56;96506.88;;;12.62;24.35
56052;BME280;41919;42.648;23.384;2024-01-30T08:54:23;96468.22;;;12.55;23.96
56052;BME280;41919;42.648;23.384;2024-01-30T08:56:48;96461.38;;;11.07;25.89
56052;BME280;41919;42.648;23.384;2024-01-30T08:59:14;96529.41;;;10.02;27.43
56052;BME280;41919;42.648;23.384;2024-01-30T09:01:39;96535.00;;;10.07;27.63
56052;BME280;41919;42.648;23.384;2024-01-30T09:04:05;96532.13;;;9.11;29.06
56052;BME280;41919;42.648;23.384;2024-01-30T09:06:30;96512.81;;;8.76;29.65
56052;BME280;41919;42.648;23.384;2024-01-30T09:08:56;96521.88;;;8.34;30.57
56052;BME280;41919;42.648;23.384;2024-01-30T09:11:23;96519.88;;;7.99;31.26
56052;BME280;41919;42.648;23.384;2024-01-30T09:13:48;96479.75;;;7.14;32.00
56052;BME280;41919;42.648;23.384;2024-01-30T09:16:14;96453.91;;;6.21;33.19
56052;BME280;41919;42.648;23.384;2024-01-30T09:18:41;96524.94;;;6.20;34.45
56052;BME280;41919;42.648;23.384;2024-01-30T09:21:06;96519.94;;;5.33;36.00
56052;BME280;41919;42.648;23.384;2024-01-30T09:23:32;96522.06;;;5.17;36.77
56052;BME280;41919;42.648;23.384;2024-01-30T09:25:57;96514.34;;;5.38;37.19
56052;BME280;41919;42.648;23.384;2024-01-30T09:28:23;96515.47;;;5.56;36.48
56052;BME280;41919;42.648;23.384;2024-01-30T09:30:48;96499.06;;;5.56;36.78
56052;BME280;41919;42.648;23.384;2024-01-30T09:33:13;96510.50;;;5.85;36.58
56052;BME280;41919;42.648;23.384;2024-01-30T09:35:39;96516.28;;;5.57;36.80
56052;BME280;41919;42.648;23.384;2024-01-30T09:38:04;96463.97;;;5.19;37.20
56052;BME280;41919;42.648;23.384;2024-01-30T09:40:30;96508.19;;;6.03;37.30
56052;BME280;41919;42.648;23.384;2024-01-30T09:42:55;96506.56;;;7.24;34.50
56052;BME280;41919;42.648;23.384;2024-01-30T09:45:25;96443.72;;;8.24;32.67
56052;BME280;41919;42.648;23.384;2024-01-30T09:47:52;96498.91;;;9.85;30.32
56052;BME280;41919;42.648;23.384;2024-01-30T09:50:18;96496.00;;;11.01;28.48
56052;BME280;41919;42.648;23.384;2024-01-30T09:52:44;96485.66;;;11.83;27.02
56052;BME280;41919;42.648;23.384;2024-01-30T09:55:09;96460.09;;;12.18;26.60
56052;BME280;41919;42.648;23.384;2024-01-30T09:57:35;96459.41;;;12.40;26.35
56052;BME280;41919;42.648;23.384;2024-01-30T10:00:02;96400.88;;;11.18;26.62
56052;BME280;41919;42.648;23.384;2024-01-30T10:02:28;96488.41;;;10.47;28.82
56052;BME280;41919;42.648;23.384;2024-01-30T10:04:53;96439.19;;;10.34;28.73
56052;BME280;41919;42.648;23.384;2024-01-30T10:07:19;96464.69;;;11.33;27.38
56052;BME280;41919;42.648;23.384;2024-01-30T10:09:45;96410.41;;;10.68;27.93
56052;BME280;41919;42.648;23.384;2024-01-30T10:12:11;96401.50;;;9.84;28.80
56052;BME280;41919;42.648;23.384;2024-01-30T10:14:40;96423.72;;;9.44;29.85
56052;BME280;41919;42.648;23.384;2024-01-30T10:17:08;96440.63;;;9.22;30.62
56052;BME280;41919;42.648;23.384;2024-01-30T10:19:33;96456.81;;;9.26;30.46
56052;BME280;41919;42.648;23.384;2024-01-30T10:22:03;96457.94;;;9.23;31.48
56052;BME280;41919;42.648;23.384;2024-01-30T10:24:28;96484.81;;;8.50;32.51
56052;BME280;41919;42.648;23.384;2024-01-30T10:26:57;96486.59;;;7.93;33.07
56052;BME280;41919;42.648;23.384;2024-01-30T10:29:24;96489.59;;;7.10;35.05
56052;BME280;41919;42.648;23.384;2024-01-30T10:32:03;96477.63;;;6.88;35.87
56052;BME280;41919;42.648;23.384;2024-01-30T10:34:29;96454.81;;;6.41;35.97
56052;BME280;41919;42.648;23.384;2024-01-30T10:37:08;96433.91;;;5.28;37.48
56052;BME280;41919;42.648;23.384;2024-01-30T10:39:45;96486.66;;;5.38;38.71
56052;BME280;41919;42.648;23.384;2024-01-30T10:42:12;96409.13;;;4.70;39.53
56052;BME280;41919;42.648;23.384;2024-01-30T10:44:57;96495.28;;;4.95;40.57
56052;BME280;41919;42.648;23.384;2024-01-30T10:47:28;96487.06;;;4.67;41.22
56052;BME280;41919;42.648;23.384;2024-01-30T10:49:55;96428.63;;;3.97;41.95
56052;BME280;41919;42.648;23.384;2024-01-30T10:52:23;96484.91;;;3.82;43.16
56052;BME280;41919;42.648;23.384;2024-01-30T10:54:50;96432.31;;;3.59;43.15
56052;BME280;41919;42.648;23.384;2024-01-30T10:57:16;96473.31;;;4.10;42.70
56052;BME280;41919;42.648;23.384;2024-01-30T10:59:43;96468.13;;;4.22;42.40
56052;BME280;41919;42.648;23.384;2024-01-30T11:02:09;96402.75;;;3.86;42.44
56052;BME280;41919;42.648;23.384;2024-01-30T11:04:41;96395.44;;;3.91;42.16
56052;BME280;41919;42.648;23.384;2024-01-30T11:07:19;96466.13;;;4.59;41.94
56052;BME280;41919;42.648;23.384;2024-01-30T11:12:26;96339.38;;;3.69;41.50
56052;BME280;41919;42.648;23.384;2024-01-30T11:17:43;96459.28;;;4.69;41.61
56052;BME280;41919;42.648;23.384;2024-01-30T11:20:14;96459.72;;;4.86;41.09
56052;BME280;41919;42.648;23.384;2024-01-30T11:22:41;96388.75;;;4.22;41.14
56052;BME280;41919;42.648;23.384;2024-01-30T11:25:11;96448.00;;;4.59;41.69
56052;BME280;41919;42.648;23.384;2024-01-30T11:27:37;96453.19;;;4.59;42.54
56052;BME280;41919;42.648;23.384;2024-01-30T11:30:03;96363.25;;;3.95;42.55
56052;BME280;41919;42.648;23.384;2024-01-30T11:32:29;96417.91;;;4.24;42.54
56052;BME280;41919;42.648;23.384;2024-01-30T11:34:55;96394.28;;;3.84;43.05
56052;BME280;41919;42.648;23.384;2024-01-30T11:37:21;96447.28;;;4.01;43.60
56052;BME280;41919;42.648;23.384;2024-01-30T11:39:50;96374.78;;;3.22;44.67
56052;BME280;41919;42.648;23.384;2024-01-30T11:42:16;96429.84;;;3.58;44.59
56052;BME280;41919;42.648;23.384;2024-01-30T11:44:46;96433.75;;;3.63;44.75
56052;BME280;41919;42.648;23.384;2024-01-30T11:47:12;96447.88;;;3.82;44.75
56052;BME280;41919;42.648;23.384;2024-01-30T11:49:37;96378.41;;;3.19;45.20
56052;BME280;41919;42.648;23.384;2024-01-30T11:52:03;96446.13;;;3.82;45.25
56052;BME280;41919;42.648;23.384;2024-01-30T11:54:29;96430.63;;;3.93;44.44
56052;BME280;41919;42.648;23.384;2024-01-30T11:56:54;96364.28;;;3.59;43.80
56052;BME280;41919;42.648;23.384;2024-01-30T11:59:20;96431.78;;;4.35;43.63
56052;BME280;41919;42.648;23.384;2024-01-30T12:01:46;96436.47;;;4.52;43.01
56052;BME280;41919;42.648;23.384;2024-01-30T12:04:11;96360.50;;;4.30;42.26
56052;BME280;41919;42.648;23.384;2024-01-30T12:06:37;96426.78;;;4.77;42.23
56052;BME280;41919;42.648;23.384;2024-01-30T12:09:03;96421.44;;;4.89;42.15
56052;BME280;41919;42.648;23.384;2024-01-30T12:11:45;96403.09;;;5.14;41.37
56052;BME280;41919;42.648;23.384;2024-01-30T12:14:11;96343.91;;;4.98;40.79
56052;BME280;41919;42.648;23.384;2024-01-30T12:16:37;96409.34;;;4.79;42.01
56052;BME280;41919;42.648;23.384;2024-01-30T12:19:02;96406.84;;;4.22;43.41
56052;BME280;41919;42.648;23.384;2024-01-30T12:21:29;96404.38;;;4.32;43.09
56052;BME280;41919;42.648;23.384;2024-01-30T12:23:54;96333.81;;;3.62;43.62
56052;BME280;41919;42.648;23.384;2024-01-30T12:26:20;96398.41;;;4.09;43.31
56052;BME280;41919;42.648;23.384;2024-01-30T12:28:49;96403.66;;;3.73;44.89
56052;BME280;41919;42.648;23.384;2024-01-30T12:31:15;96398.75;;;3.35;45.67
56052;BME280;41919;42.648;23.384;2024-01-30T12:33:41;96388.09;;;2.69;47.03
56052;BME280;41919;42.648;23.384;2024-01-30T12:36:07;96389.88;;;2.55;47.89
56052;BME280;41919;42.648;23.384;2024-01-30T12:38:32;96325.44;;;2.06;49.23
56052;BME280;41919;42.648;23.384;2024-01-30T12:40:58;96383.16;;;2.29;49.14
56052;BME280;41919;42.648;23.384;2024-01-30T12:43:24;96314.53;;;2.02;49.32
56052;BME280;41919;42.648;23.384;2024-01-30T12:45:50;96300.72;;;1.90;48.79
56052;BME280;41919;42.648;23.384;2024-01-30T12:48:15;96366.25;;;2.25;49.11
56052;BME280;41919;42.648;23.384;2024-01-30T12:50:41;96382.47;;;2.51;49.06
56052;BME280;41919;42.648;23.384;2024-01-30T12:53:07;96301.59;;;2.15;48.83
56052;BME280;41919;42.648;23.384;2024-01-30T12:55:34;96363.03;;;2.82;47.81
56052;BME280;41919;42.648;23.384;2024-01-30T12:57:59;96375.72;;;3.21;46.66